Bettles Field, AK

1:41 PM AKST on February 24, 2017 (GMT -0900)
Bettles | | Change Station
Active Advisory: Winter Storm Warning

Elev 643 ft 66.92 °N, 151.53 °W | Updated 48 minutes ago

Snow
Snow
18 °F
Feels Like 18 °F
N
0
Wind Variable Wind from North

Today
High -- | Low -- °F
--% Chance of Precip.
Yesterday
High -- | Low -- °F
Precip. -- in
Pressure 30.10 in
Visibility 2.0 miles
Clouds Mostly Cloudy 1000 ft
Overcast 2000 ft
Dew Point 14 °F
Humidity 84%
Rainfall 0.15 in
Snow Depth Not available.
8:39 AM 6:00 PM
Waning Crescent, 3% visible
METAR PABT 242153Z 00000KT 2SM -SN BR BKN010 OVC020 M08/M10 A3004 RMK AO2 SLP191 T10781100 $
Pressure 30.10 in
Visibility 2.0 miles
Clouds Mostly Cloudy 1000 ft
Overcast 2000 ft
Dew Point 14 °F
Humidity 84%
Rainfall 0.15 in
Snow Depth Not available.
8:39 AM 6:00 PM
Waning Crescent, 3% visible
METAR PABT 242153Z 00000KT 2SM -SN BR BKN010 OVC020 M08/M10 A3004 RMK AO2 SLP191 T10781100 $

Get Your Daily Forecast Email!

Thanks for signing up!

Be on the lookout for a verification email in your inbox.

You'll start receiving the daily forecast at 8 AM.

×

10-Day Weather Forecast

Almanac

Astronomy

Feb. 24, 2017 Rise Set
Actual Time
Civil Twilight
Nautical Twilight
Astronomical Twilight
Moon
Length of Visible Light
Length of Day
Tomorrow will be .
, % of the Moon is Illuminated

Today's Extremes

State Highs State Lows

Community

WunderPhotos

Upload Photos

1,962,540 photos uploaded!

WunderBlog® & News

Nearby

Air Quality

  Air Quality AQ Index Pollutant
Not available.

Snow Depth

Station Depth Elevation

Earthquake Activity

City Distance Mag. Time & Date
Minimum magnitude displayed is 2.5.

Coastal Water Temperatures

Place Temperature

Stations

Nearby Weather Stations

Station Location Temp. Windchill Dew Point Humidity Wind Precip. Elev Updated Type
                   

Watches & Warnings

Winter Storm Warning
Issued: 9:30 AM AKST Feb. 24, 2017 – National Weather Service

... Winter Storm Warning remains in effect until 6 am akst
Sunday...

* location... north of Hughes.

* Snow... additional snow accumulations of 6 to 12 inches through
Sunday morning.

* Timing... snow heavy at times will continue through Sunday
morning.

* Impacts... visibility may be greatly reduced. Travel and
outdoor activities will be difficult.

Precautionary/preparedness actions...

A Winter Storm Warning means one or more significant winter
weather hazards are occurring or expected.